createdAt,value
2019-04-29T00:00:50.680Z,2.90
2019-04-29T00:03:19.142Z,4.27
2019-04-29T00:05:47.674Z,1.90
2019-04-29T00:08:16.285Z,3.00
2019-04-29T00:10:45.034Z,2.77
2019-04-29T00:13:14.599Z,2.40
2019-04-29T00:15:47.420Z,1.93
2019-04-29T00:18:33.661Z,2.00
2019-04-29T00:21:02.342Z,1.60
2019-04-29T00:23:30.831Z,2.03
2019-04-29T00:25:59.292Z,1.90
2019-04-29T00:28:27.900Z,1.50
2019-04-29T00:30:56.340Z,1.10
2019-04-29T00:33:24.755Z,1.77
2019-04-29T00:35:53.229Z,1.40
2019-04-29T00:38:39.883Z,1.60
2019-04-29T00:41:19.038Z,1.13
2019-04-29T00:43:49.241Z,1.10
2019-04-29T00:46:17.620Z,1.40
2019-04-29T00:48:46.098Z,1.23
2019-04-29T00:51:14.631Z,1.40
2019-04-29T00:53:43.716Z,1.77
2019-04-29T00:56:12.208Z,1.57
2019-04-29T00:58:40.596Z,1.77
2019-04-29T01:01:12.839Z,1.57
2019-04-29T01:03:41.395Z,1.60
2019-04-29T01:06:09.889Z,1.50
2019-04-29T01:08:38.349Z,1.40
2019-04-29T01:11:07.054Z,1.70
2019-04-29T01:13:35.449Z,1.70
2019-04-29T01:16:04.058Z,2.00
2019-04-29T01:18:32.452Z,1.70
2019-04-29T01:21:00.878Z,1.60
2019-04-29T01:23:29.335Z,1.87
2019-04-29T01:25:59.458Z,1.70
2019-04-29T01:28:38.778Z,2.30
2019-04-29T01:31:09.024Z,3.27
2019-04-29T01:33:37.406Z,3.30
2019-04-29T01:36:16.710Z,3.07
2019-04-29T01:38:48.597Z,3.23
2019-04-29T01:41:32.591Z,2.67
2019-04-29T01:44:02.509Z,2.67
2019-04-29T01:46:31.070Z,2.63
2019-04-29T01:48:59.533Z,2.50
2019-04-29T01:51:27.948Z,3.07
2019-04-29T01:53:56.498Z,2.73
2019-04-29T01:56:24.917Z,3.07
2019-04-29T01:58:53.338Z,2.77
2019-04-29T02:01:21.896Z,2.53
2019-04-29T02:03:50.294Z,2.93
2019-04-29T02:06:18.864Z,3.10
2019-04-29T02:08:47.828Z,2.97
2019-04-29T02:11:16.281Z,3.10
2019-04-29T02:13:44.673Z,2.97
2019-04-29T02:16:13.119Z,2.90
2019-04-29T02:18:41.510Z,3.03
2019-04-29T02:21:09.931Z,3.17
2019-04-29T02:23:52.287Z,2.83
2019-04-29T02:26:20.703Z,2.53
2019-04-29T02:28:49.085Z,2.80
2019-04-29T02:31:35.525Z,2.33
2019-04-29T02:34:04.039Z,2.50
2019-04-29T02:36:32.455Z,2.53
2019-04-29T02:39:02.945Z,2.57
2019-04-29T02:41:32.959Z,2.30
2019-04-29T02:44:02.998Z,2.23
2019-04-29T02:46:31.525Z,2.70
2019-04-29T02:48:59.919Z,3.30
2019-04-29T02:51:46.268Z,2.93
2019-04-29T02:54:14.864Z,2.80
2019-04-29T02:56:44.953Z,2.90
2019-04-29T02:59:32.977Z,3.67
2019-04-29T03:02:03.169Z,3.20
2019-04-29T03:04:35.729Z,2.87
2019-04-29T03:07:04.258Z,3.20
2019-04-29T03:09:34.513Z,3.07
2019-04-29T03:12:03.152Z,5.37
2019-04-29T03:14:31.555Z,7.57
2019-04-29T03:17:00.025Z,6.80
2019-04-29T03:19:30.683Z,7.50
2019-04-29T03:22:00.850Z,8.90
2019-04-29T03:24:29.938Z,9.90
2019-04-29T03:28:34.333Z,9.40
2019-04-29T03:31:02.896Z,9.90
2019-04-29T03:33:31.380Z,9.63
2019-04-29T03:35:59.888Z,10.67
2019-04-29T03:38:28.557Z,11.53
2019-04-29T03:40:56.955Z,9.47
2019-04-29T03:43:25.637Z,10.40
2019-04-29T03:45:54.120Z,12.90
2019-04-29T03:48:22.678Z,11.97
2019-04-29T03:50:51.073Z,11.37
2019-04-29T03:53:19.557Z,12.07
2019-04-29T03:55:47.984Z,13.37
2019-04-29T03:58:16.399Z,13.40
2019-04-29T04:00:46.468Z,13.27
2019-04-29T04:03:22.414Z,13.20
2019-04-29T04:05:58.292Z,13.17
2019-04-29T04:08:33.817Z,14.17
2019-04-29T04:11:02.242Z,13.07
2019-04-29T04:13:30.645Z,12.97
2019-04-29T04:15:59.234Z,12.40
2019-04-29T04:18:29.284Z,12.40
2019-04-29T04:20:57.829Z,11.33
2019-04-29T04:23:26.239Z,11.70
2019-04-29T04:25:54.684Z,12.83
2019-04-29T04:28:23.106Z,11.97
2019-04-29T04:30:51.512Z,12.03
2019-04-29T04:33:19.929Z,12.03
2019-04-29T04:35:48.339Z,11.67
2019-04-29T04:38:16.891Z,11.60
2019-04-29T04:40:47.034Z,12.60
2019-04-29T04:43:15.449Z,12.50
2019-04-29T04:45:43.887Z,19.80
2019-04-29T04:48:12.317Z,15.73
2019-04-29T04:50:40.827Z,14.43
2019-04-29T04:53:09.518Z,12.50
2019-04-29T04:55:39.673Z,12.70
2019-04-29T04:58:08.177Z,13.33
2019-04-29T05:00:37.850Z,12.50
2019-04-29T05:03:06.333Z,12.93
2019-04-29T05:05:34.824Z,12.07
2019-04-29T05:08:03.280Z,11.93
2019-04-29T05:10:31.755Z,11.90
2019-04-29T05:13:00.186Z,12.20
2019-04-29T05:15:28.664Z,11.07
2019-04-29T05:17:57.100Z,10.07
2019-04-29T05:20:25.525Z,9.47
2019-04-29T05:22:59.669Z,9.90
2019-04-29T05:25:32.697Z,9.83
2019-04-29T05:28:01.393Z,9.07
2019-04-29T05:30:30.064Z,8.07
2019-04-29T05:32:58.531Z,8.43
2019-04-29T05:35:31.019Z,8.27
2019-04-29T05:38:03.785Z,9.53
2019-04-29T05:40:39.817Z,7.63
2019-04-29T05:43:09.977Z,6.60
2019-04-29T05:48:42.719Z,8.00
2019-04-29T05:51:30.823Z,8.23
2019-04-29T05:54:03.580Z,9.10
2019-04-29T05:56:32.014Z,9.70
2019-04-29T05:59:00.783Z,9.47
2019-04-29T06:01:30.830Z,9.97
2019-04-29T06:03:59.297Z,9.10
2019-04-29T06:06:27.765Z,8.50
2019-04-29T06:08:56.170Z,7.90
2019-04-29T06:11:24.639Z,8.37
2019-04-29T06:13:53.124Z,8.60
2019-04-29T06:16:22.683Z,9.20
2019-04-29T06:18:59.767Z,8.43
2019-04-29T06:21:21.488Z,8.87
2019-04-29T06:23:49.900Z,8.50
2019-04-29T06:26:18.343Z,9.73
2019-04-29T06:28:46.767Z,9.37
2019-04-29T06:31:15.228Z,9.83
2019-04-29T06:33:43.713Z,10.63
2019-04-29T06:36:12.189Z,11.70
2019-04-29T06:38:40.788Z,11.80
2019-04-29T06:41:09.991Z,11.37
2019-04-29T06:43:39.298Z,11.60
2019-04-29T06:46:07.701Z,11.10
2019-04-29T06:48:36.121Z,10.50
2019-04-29T06:51:04.587Z,12.20
2019-04-29T06:53:33.164Z,11.97
2019-04-29T06:56:01.630Z,11.50
2019-04-29T06:58:32.462Z,15.07
2019-04-29T07:01:01.468Z,14.93
2019-04-29T07:03:30.462Z,13.70
2019-04-29T07:05:58.863Z,14.47
2019-04-29T07:08:27.559Z,14.97
2019-04-29T07:11:00.691Z,16.73
2019-04-29T07:13:26.081Z,16.27
2019-04-29T07:15:54.490Z,17.10
2019-04-29T07:18:22.892Z,15.10
2019-04-29T07:20:51.290Z,14.43
2019-04-29T07:23:19.696Z,13.07
2019-04-29T07:25:48.123Z,13.37
2019-04-29T07:28:18.496Z,15.50
2019-04-29T07:31:01.009Z,15.37
2019-04-29T07:33:21.831Z,16.73
2019-04-29T07:35:47.937Z,17.10
2019-04-29T07:38:17.292Z,16.13
2019-04-29T07:40:45.739Z,15.67
2019-04-29T07:43:14.204Z,17.00
2019-04-29T07:45:47.398Z,16.67
2019-04-29T07:48:15.874Z,17.83
2019-04-29T07:50:44.325Z,20.60
2019-04-29T07:53:12.785Z,19.70
2019-04-29T07:55:41.202Z,19.73
2019-04-29T07:58:09.618Z,19.60
2019-04-29T08:00:38.142Z,19.97
2019-04-29T08:03:08.394Z,17.77
2019-04-29T08:05:37.171Z,18.33
2019-04-29T08:08:06.035Z,19.30
2019-04-29T08:10:34.437Z,19.73
2019-04-29T08:13:03.317Z,18.07
2019-04-29T08:15:32.184Z,18.63
2019-04-29T08:18:06.885Z,18.90
2019-04-29T08:20:30.890Z,18.03
2019-04-29T08:23:02.531Z,18.17
2019-04-29T08:25:29.437Z,16.53
2019-04-29T08:27:57.834Z,16.57
2019-04-29T08:30:26.255Z,15.73
2019-04-29T08:32:54.658Z,14.97
2019-04-29T08:35:23.219Z,14.70
2019-04-29T08:37:51.652Z,13.93
2019-04-29T08:40:20.481Z,12.97
2019-04-29T08:42:50.678Z,12.30
2019-04-29T08:45:27.097Z,11.57
2019-04-29T08:47:55.617Z,11.93
2019-04-29T08:50:24.153Z,12.33
2019-04-29T08:52:52.570Z,11.90
2019-04-29T08:55:26.598Z,10.57
2019-04-29T08:57:55.867Z,10.90
2019-04-29T09:00:24.606Z,10.60
2019-04-29T09:02:53.028Z,10.30
2019-04-29T09:05:21.561Z,10.17
2019-04-29T09:07:52.590Z,10.53
2019-04-29T09:10:20.264Z,9.97
2019-04-29T09:12:48.680Z,11.93
2019-04-29T09:15:18.542Z,14.23
2019-04-29T09:17:47.021Z,9.07
2019-04-29T09:20:16.696Z,9.33
2019-04-29T09:22:46.874Z,8.50
2019-04-29T09:25:21.468Z,8.90
2019-04-29T09:27:48.885Z,8.40
2019-04-29T09:30:17.677Z,8.80
2019-04-29T09:32:46.128Z,8.90
2019-04-29T09:35:14.587Z,9.10
2019-04-29T09:37:43.065Z,8.67
2019-04-29T09:40:14.060Z,8.50
2019-04-29T09:42:50.239Z,8.77
2019-04-29T09:45:24.310Z,9.27
2019-04-29T09:47:51.924Z,9.27
2019-04-29T09:50:22.118Z,9.93
2019-04-29T09:52:50.515Z,9.83
2019-04-29T09:55:20.494Z,9.50
2019-04-29T09:57:48.973Z,8.80
2019-04-29T10:00:25.451Z,8.97
2019-04-29T10:02:58.590Z,8.77
2019-04-29T10:05:44.553Z,8.33
2019-04-29T10:08:13.224Z,8.63
2019-04-29T10:10:41.654Z,8.70
2019-04-29T10:13:10.122Z,8.67
2019-04-29T10:15:42.852Z,9.10
2019-04-29T10:18:18.368Z,8.37
2019-04-29T10:20:48.402Z,8.50
2019-04-29T10:23:16.804Z,8.07
2019-04-29T10:25:45.380Z,7.77
2019-04-29T10:28:13.916Z,8.60
2019-04-29T10:30:42.582Z,9.10
2019-04-29T10:33:12.845Z,8.63
2019-04-29T10:35:45.244Z,8.23
2019-04-29T10:38:11.851Z,8.10
2019-04-29T10:41:00.131Z,8.23
2019-04-29T10:43:38.166Z,8.53
2019-04-29T10:46:11.305Z,8.27
2019-04-29T10:48:47.026Z,8.00
2019-04-29T10:51:16.560Z,8.00
2019-04-29T10:53:46.643Z,7.97
2019-04-29T10:56:15.339Z,7.17
2019-04-29T10:58:43.922Z,7.33
2019-04-29T11:01:38.261Z,7.63
2019-04-29T11:04:08.824Z,7.27
2019-04-29T11:06:37.192Z,7.80
2019-04-29T11:09:14.511Z,6.77
2019-04-29T11:11:45.363Z,6.50
2019-04-29T11:14:13.843Z,7.10
2019-04-29T11:16:46.682Z,6.20
2019-04-29T11:19:12.524Z,7.10
2019-04-29T11:21:40.950Z,7.57
2019-04-29T11:24:16.884Z,6.50
2019-04-29T11:26:46.947Z,6.50
2019-04-29T11:29:15.424Z,6.30
2019-04-29T11:31:44.174Z,6.57
2019-04-29T11:34:20.093Z,5.90
2019-04-29T11:36:48.779Z,5.17
2019-04-29T11:39:17.578Z,4.70
2019-04-29T11:41:46.071Z,4.70
2019-04-29T11:44:14.620Z,4.50
2019-04-29T11:46:44.584Z,3.73
2019-04-29T11:49:14.466Z,3.13
2019-04-29T11:52:07.817Z,3.40
2019-04-29T11:54:18.149Z,3.43
2019-04-29T11:56:44.824Z,2.60
2019-04-29T11:59:23.936Z,3.00
2019-04-29T12:02:10.699Z,2.67
2019-04-29T12:07:37.024Z,2.23
2019-04-29T12:10:07.856Z,2.97
2019-04-29T12:12:36.477Z,2.67
2019-04-29T12:15:24.800Z,2.03
2019-04-29T12:18:03.897Z,2.17
2019-04-29T12:20:39.967Z,2.00
2019-04-29T12:23:11.126Z,2.27
2019-04-29T12:25:38.527Z,2.13
2019-04-29T12:28:18.989Z,1.90
2019-04-29T12:30:38.953Z,2.20
2019-04-29T12:33:09.103Z,2.40
2019-04-29T12:35:51.945Z,2.33
2019-04-29T12:38:39.018Z,2.03
2019-04-29T12:41:00.783Z,1.80
2019-04-29T12:43:32.430Z,1.50
2019-04-29T12:46:02.522Z,2.00
2019-04-29T12:48:30.971Z,1.47
2019-04-29T12:50:59.624Z,1.40
2019-04-29T12:53:28.044Z,1.70
2019-04-29T12:55:57.236Z,1.80
2019-04-29T12:58:26.007Z,1.10
2019-04-29T13:01:00.507Z,1.90
2019-04-29T13:03:30.952Z,1.00
2019-04-29T13:06:02.544Z,1.02
2019-04-29T13:08:31.870Z,1.17
2019-04-29T13:11:01.872Z,1.20
2019-04-29T13:13:30.466Z,0.80
2019-04-29T13:16:20.297Z,0.97
2019-04-29T13:19:10.795Z,1.33
2019-04-29T13:21:28.802Z,1.10
2019-04-29T13:24:12.721Z,1.10
2019-04-29T13:26:28.727Z,1.20
2019-04-29T13:29:01.171Z,1.50
2019-04-29T13:31:38.233Z,1.37
2019-04-29T13:34:09.010Z,1.23
2019-04-29T13:36:29.906Z,1.50
2019-04-29T13:38:58.387Z,1.30
2019-04-29T13:41:27.299Z,1.10
2019-04-29T13:44:04.431Z,1.00
2019-04-29T13:46:32.295Z,1.50
2019-04-29T13:49:17.498Z,1.10
2019-04-29T13:51:47.494Z,1.55
2019-04-29T13:54:16.014Z,1.40
2019-04-29T13:56:56.166Z,1.80
2019-04-29T13:59:16.337Z,1.57
2019-04-29T14:02:00.100Z,1.43
2019-04-29T14:04:32.542Z,1.87
2019-04-29T14:07:01.016Z,1.80
2019-04-29T14:09:29.462Z,1.90
2019-04-29T14:12:02.837Z,1.53
2019-04-29T14:14:28.332Z,2.40
2019-04-29T14:17:17.108Z,2.40
2019-04-29T14:19:41.037Z,3.40
2019-04-29T14:21:57.209Z,2.00
2019-04-29T14:24:25.625Z,1.83
2019-04-29T14:26:54.034Z,1.77
2019-04-29T14:29:27.453Z,1.87
2019-04-29T14:31:59.108Z,1.57
2019-04-29T14:34:36.354Z,2.10
2019-04-29T14:37:19.587Z,2.47
2019-04-29T14:39:37.364Z,2.07
2019-04-29T14:42:07.243Z,2.40
2019-04-29T14:44:48.858Z,2.50
2019-04-29T14:47:30.794Z,2.40
2019-04-29T14:50:00.824Z,2.00
2019-04-29T14:52:29.505Z,2.90
2019-04-29T14:54:57.910Z,3.23
2019-04-29T14:57:26.984Z,3.47
2019-04-29T14:59:55.615Z,3.50
2019-04-29T15:02:26.006Z,3.20
2019-04-29T15:04:54.557Z,3.23
2019-04-29T15:07:22.952Z,2.50
2019-04-29T15:09:55.915Z,2.73
2019-04-29T15:12:30.693Z,3.10
2019-04-29T15:15:09.428Z,2.87
2019-04-29T15:17:51.752Z,2.80
2019-04-29T15:20:25.064Z,3.67
2019-04-29T15:22:52.006Z,3.60
2019-04-29T15:25:21.028Z,2.63
2019-04-29T15:27:50.561Z,2.60
2019-04-29T15:30:19.204Z,2.30
2019-04-29T15:32:47.795Z,1.70
2019-04-29T15:35:19.902Z,2.47
2019-04-29T15:37:46.427Z,2.00
2019-04-29T15:40:15.165Z,1.80
2019-04-29T15:42:48.604Z,2.40
2019-04-29T15:45:13.790Z,3.90
2019-04-29T15:47:45.720Z,3.00
2019-04-29T15:50:18.482Z,2.67
2019-04-29T15:52:42.847Z,2.37
2019-04-29T15:55:11.360Z,2.50
2019-04-29T15:57:40.017Z,2.23
2019-04-29T16:00:21.497Z,2.67
2019-04-29T16:02:41.405Z,2.97
2019-04-29T16:05:26.181Z,5.20
2019-04-29T16:08:05.003Z,4.60
2019-04-29T16:10:35.127Z,2.83
2019-04-29T16:13:05.245Z,3.10
2019-04-29T16:15:33.717Z,3.70
2019-04-29T16:18:05.289Z,2.80
2019-04-29T16:20:32.391Z,2.70
2019-04-29T16:23:02.209Z,3.60
2019-04-29T16:25:30.629Z,3.40
2019-04-29T16:27:59.147Z,3.57
2019-04-29T16:30:31.932Z,3.50
2019-04-29T16:32:57.947Z,2.73
2019-04-29T16:35:33.962Z,3.00
2019-04-29T16:37:56.557Z,2.30
2019-04-29T16:40:33.801Z,2.73
2019-04-29T16:43:00.337Z,3.07
2019-04-29T16:45:51.612Z,3.03
2019-04-29T16:48:17.055Z,2.43
2019-04-29T16:50:45.559Z,2.77
2019-04-29T16:53:14.144Z,2.90
2019-04-29T16:55:44.282Z,3.67
2019-04-29T16:58:18.098Z,3.80
2019-04-29T17:00:46.798Z,3.60
2019-04-29T17:03:13.569Z,4.00
2019-04-29T17:05:42.018Z,4.03
2019-04-29T17:08:15.168Z,3.83
2019-04-29T17:10:45.807Z,5.00
2019-04-29T17:13:21.784Z,5.47
2019-04-29T17:15:52.416Z,4.43
2019-04-29T17:18:14.788Z,3.93
2019-04-29T17:20:43.378Z,3.90
2019-04-29T17:23:11.861Z,3.80
2019-04-29T17:25:40.448Z,6.13
2019-04-29T17:30:49.320Z,3.53
2019-04-29T17:33:28.035Z,3.90
2019-04-29T17:35:17.817Z,5.03
2019-04-29T17:35:51.865Z,3.70
2019-04-29T17:38:20.410Z,3.73
2019-04-29T17:40:51.021Z,5.10
2019-04-29T17:43:23.889Z,4.53
2019-04-29T17:45:56.404Z,5.10
2019-04-29T17:48:30.579Z,3.93
2019-04-29T17:51:03.822Z,4.73
2019-04-29T17:53:46.121Z,5.10
2019-04-29T17:56:16.338Z,5.50
2019-04-29T17:58:54.768Z,4.83
2019-04-29T18:01:42.998Z,5.00
2019-04-29T18:04:27.250Z,4.73
2019-04-29T18:07:08.302Z,6.53
2019-04-29T18:09:29.168Z,5.80
2019-04-29T18:11:58.025Z,5.67
2019-04-29T18:14:36.576Z,5.93
2019-04-29T18:16:56.881Z,6.77
2019-04-29T18:19:30.862Z,6.27
2019-04-29T18:22:10.569Z,6.30
2019-04-29T18:24:44.932Z,6.43
2019-04-29T18:27:15.410Z,6.20
2019-04-29T18:29:43.878Z,5.83
2019-04-29T18:32:12.560Z,6.77
2019-04-29T18:34:42.049Z,5.80
2019-04-29T18:37:10.537Z,6.57
2019-04-29T18:39:39.019Z,6.77
2019-04-29T18:42:07.698Z,6.60
2019-04-29T18:44:36.127Z,7.20
2019-04-29T18:47:05.576Z,7.67
2019-04-29T18:49:34.446Z,7.77
2019-04-29T18:52:05.652Z,8.27
2019-04-29T18:54:33.192Z,8.90
2019-04-29T18:57:03.229Z,9.67
2019-04-29T18:59:33.649Z,9.03
2019-04-29T19:02:07.739Z,9.13
2019-04-29T19:04:35.428Z,8.80
2019-04-29T19:07:06.470Z,9.30
2019-04-29T19:09:37.147Z,8.53
2019-04-29T19:12:07.558Z,9.17
2019-04-29T19:14:35.987Z,9.10
2019-04-29T19:17:04.942Z,9.37
2019-04-29T19:19:35.888Z,8.83
2019-04-29T19:22:07.636Z,8.40
2019-04-29T19:24:36.294Z,8.67
2019-04-29T19:27:09.128Z,8.70
2019-04-29T19:29:34.236Z,8.00
2019-04-29T19:32:02.790Z,8.03
2019-04-29T19:34:42.490Z,9.90
2019-04-29T19:37:08.010Z,9.30
2019-04-29T19:39:36.422Z,8.63
2019-04-29T19:42:05.637Z,8.37
2019-04-29T19:44:36.631Z,9.60
2019-04-29T19:47:04.524Z,10.03
2019-04-29T19:49:32.936Z,9.83
2019-04-29T19:52:01.640Z,9.13
2019-04-29T19:54:30.027Z,8.97
2019-04-29T19:57:03.539Z,8.60
2019-04-29T19:59:29.287Z,8.63
2019-04-29T20:03:41.375Z,9.60
2019-04-29T20:06:21.306Z,8.87
2019-04-29T20:08:53.589Z,9.30
2019-04-29T20:11:15.312Z,10.47
2019-04-29T20:13:46.845Z,8.67
2019-04-29T20:16:42.915Z,9.67
2019-04-29T20:19:06.938Z,10.43
2019-04-29T20:21:36.676Z,11.20
2019-04-29T20:24:09.638Z,10.97
2019-04-29T20:26:36.170Z,12.77
2019-04-29T20:29:07.120Z,11.93
2019-04-29T20:31:38.613Z,12.73
2019-04-29T20:34:06.167Z,12.37
2019-04-29T20:36:41.605Z,12.67
2019-04-29T20:39:06.904Z,14.77
2019-04-29T20:41:40.630Z,14.20
2019-04-29T20:44:09.275Z,15.33
2019-04-29T20:46:45.435Z,16.27
2019-04-29T20:49:07.314Z,15.03
2019-04-29T20:51:48.779Z,16.90
2019-04-29T20:54:08.978Z,16.83
2019-04-29T20:56:38.165Z,16.83
2019-04-29T20:59:12.537Z,17.40
2019-04-29T21:01:56.881Z,17.90
2019-04-29T21:04:33.812Z,17.20
2019-04-29T21:07:01.852Z,16.97
2019-04-29T21:09:27.541Z,16.67
2019-04-29T21:12:12.318Z,16.23
2019-04-29T21:14:48.415Z,15.60
2019-04-29T21:17:28.725Z,15.80
2019-04-29T21:19:47.264Z,16.20
2019-04-29T21:22:22.254Z,16.33
2019-04-29T21:24:49.527Z,16.20
2019-04-29T21:27:22.228Z,16.83
2019-04-29T21:29:49.763Z,16.87
2019-04-29T21:32:16.237Z,18.03
2019-04-29T21:34:58.175Z,17.30
2019-04-29T21:37:28.228Z,16.70
2019-04-29T21:39:58.322Z,17.57
2019-04-29T21:42:35.376Z,17.00
2019-04-29T21:45:03.511Z,17.93
2019-04-29T21:47:41.613Z,17.07
2019-04-29T21:50:01.644Z,17.97
2019-04-29T21:52:30.066Z,17.47
2019-04-29T21:54:58.580Z,18.43
2019-04-29T21:57:26.993Z,18.37
2019-04-29T21:59:55.607Z,18.67
2019-04-29T22:02:26.098Z,19.07
2019-04-29T22:04:55.198Z,19.73
2019-04-29T22:07:25.645Z,19.70
2019-04-29T22:09:55.565Z,22.27
2019-04-29T22:12:24.587Z,21.70
2019-04-29T22:14:54.201Z,21.67
2019-04-29T22:17:26.268Z,21.07
2019-04-29T22:19:59.181Z,21.67
2019-04-29T22:22:23.670Z,21.60
2019-04-29T22:24:52.162Z,23.53
2019-04-29T22:27:20.724Z,24.13
2019-04-29T22:29:49.119Z,23.57
2019-04-29T22:32:19.367Z,24.97
2019-04-29T22:34:49.604Z,26.93
2019-04-29T22:37:20.657Z,25.37
2019-04-29T22:39:48.397Z,28.20
2019-04-29T22:42:18.568Z,27.80
2019-04-29T22:44:47.143Z,27.97
2019-04-29T22:47:17.233Z,28.47
2019-04-29T22:49:45.712Z,29.20
2019-04-29T22:52:14.217Z,29.37
2019-04-29T22:54:42.762Z,28.33
2019-04-29T22:57:11.197Z,28.90
2019-04-29T22:59:39.694Z,30.10
2019-04-29T23:02:08.143Z,30.03
2019-04-29T23:04:36.558Z,30.03
2019-04-29T23:07:05.162Z,31.00
2019-04-29T23:09:33.568Z,29.60
2019-04-29T23:12:01.993Z,30.37
2019-04-29T23:14:30.453Z,29.97
2019-04-29T23:16:58.854Z,29.20
2019-04-29T23:19:27.270Z,29.97
2019-04-29T23:22:10.532Z,30.70
2019-04-29T23:24:40.850Z,31.37
2019-04-29T23:27:11.586Z,32.50
2019-04-29T23:29:43.295Z,30.30
2019-04-29T23:32:10.696Z,32.37
2019-04-29T23:34:39.192Z,29.93
2019-04-29T23:37:07.665Z,32.67
2019-04-29T23:39:36.102Z,32.00
2019-04-29T23:42:12.140Z,31.33
2019-04-29T23:44:37.737Z,31.27
2019-04-29T23:47:10.156Z,31.37
2019-04-29T23:49:42.344Z,30.77
2019-04-29T23:52:06.813Z,32.17
2019-04-29T23:54:44.415Z,31.97
2019-04-29T23:57:10.128Z,32.57
2019-04-29T23:59:48.854Z,31.90
